Terminal Aerodrome Forecast
Issued by NWS

Home | Current Version | Previous Version | Text Only | Print | Product List | Glossary On
Versions: 1 2 3 4 5 6 7 8 9 10 11 12 13 14 15 16 17 18
000
FTUS43 KOAX 300500
TAFSNY
TAF
KSNY 300535Z 3006/3106 32006KT 5SM -SHRA SCT010 BKN016
     FM301200 10008KT 4SM -SHRA BKN010
     FM301800 27008KT P6SM VCSH SCT025 BKN040
     FM310000 27008KT P6SM SCT150=

USA.gov is the U.S. government's official web portal to all federal, state and local government web resources and services.